| time (UTC) | temp F | wind direction | speed MPH | gust MPH | rain 1hr in | rain 24hr in | rain mn in | humidity % | barometer mb |
| 20260505191513 | 81 | 213 | 10.0 | 20.0 | 0.00 | 0.00 | 0.00 | 33 | 1009.3 |
| 20260505191002 | 81 | 249 | 9.0 | 18.0 | 0.00 | 0.00 | 0.00 | 33 | 1009.2 |
| 20260505190507 | 81 | 226 | 9.0 | 19.0 | 0.00 | 0.00 | 0.00 | 33 | 1009.5 |
| 20260505190004 | 81 | 240 | 7.0 | 21.0 | 0.00 | 0.00 | 0.00 | 35 | 1009.6 |
| 20260505185503 | 81 | 131 | 12.0 | 21.0 | 0.00 | 0.00 | 0.00 | 34 | 1009.7 |
| 20260505185003 | 81 | 188 | 6.0 | 20.0 | 0.00 | 0.00 | 0.00 | 35 | 1009.8 |
| 20260505184508 | 80 | 186 | 8.0 | 23.0 | 0.00 | 0.00 | 0.00 | 35 | 1009.8 |
| 20260505184007 | 81 | 229 | 13.0 | 23.0 | 0.00 | 0.00 | 0.00 | 36 | 1009.9 |
| 20260505183505 | 81 | 288 | 9.0 | 17.0 | 0.00 | 0.00 | 0.00 | 35 | 1009.8 |
| 20260505183010 | 80 | 200 | 10.0 | 17.0 | 0.00 | 0.00 | 0.00 | 35 | 1010.1 |
| 20260505182506 | 81 | 205 | 5.0 | 22.0 | 0.00 | 0.00 | 0.00 | 36 | 1009.9 |
| 20260505182007 | 81 | 186 | 6.0 | 22.0 | 0.00 | 0.00 | 0.00 | 36 | 1010.1 |
| 20260505181513 | 81 | 166 | 8.0 | 18.0 | 0.00 | 0.00 | 0.00 | 34 | 1010.1 |
| 20260505181006 | 80 | 175 | 8.0 | 18.0 | 0.00 | 0.00 | 0.00 | 35 | 1010.1 |
| 20260505180510 | 81 | 179 | 7.0 | 17.0 | 0.00 | 0.00 | 0.00 | 36 | 1010.1 |
| 20260505180016 | 81 | 214 | 7.0 | 17.0 | 0.00 | 0.00 | 0.00 | 35 | 1010.2 |
| 20260505175506 | 81 | 227 | 3.0 | 15.0 | 0.00 | 0.00 | 0.00 | 33 | 1010.2 |
| 20260505175004 | 80 | 141 | 6.0 | 21.0 | 0.00 | 0.00 | 0.00 | 33 | 1010.2 |
| 20260505174506 | 81 | 214 | 8.0 | 21.0 | 0.00 | 0.00 | 0.00 | 34 | 1010.5 |
| 20260505174003 | 81 | 210 | 9.0 | 21.0 | 0.00 | 0.00 | 0.00 | 35 | 1010.5 |
| 20260505173503 | 81 | 228 | 8.0 | 18.0 | 0.00 | 0.00 | 0.00 | 32 | 1010.3 |
| 20260505173023 | 80 | 243 | 6.0 | 18.0 | 0.00 | 0.00 | 0.00 | 35 | 1010.4 |
| 20260505172505 | 80 | 211 | 5.0 | 15.0 | 0.00 | 0.00 | 0.00 | 37 | 1010.5 |
| 20260505172006 | 79 | 195 | 7.0 | 17.0 | 0.00 | 0.00 | 0.00 | 37 | 1010.5 |
| 20260505171513 | 79 | 244 | 6.0 | 20.0 | 0.00 | 0.00 | 0.00 | 37 | 1010.6 |
| 20260505171010 | 79 | 231 | 8.0 | 20.0 | 0.00 | 0.00 | 0.00 | 38 | 1010.6 |
| 20260505170509 | 79 | 224 | 11.0 | 20.0 | 0.00 | 0.00 | 0.00 | 37 | 1010.7 |
| 20260505170024 | 79 | 217 | 9.0 | 17.0 | 0.00 | 0.00 | 0.00 | 38 | 1010.7 |
| 20260505165506 | 79 | 165 | 6.0 | 13.0 | 0.00 | 0.00 | 0.00 | 38 | 1010.7 |
| 20260505165008 | 79 | 264 | 3.0 | 11.0 | 0.00 | 0.00 | 0.00 | 37 | 1010.8 |
| 20260505164540 | 79 | 178 | 4.0 | 15.0 | 0.00 | 0.00 | 0.00 | 38 | 1010.9 |
| 20260505164007 | 78 | 126 | 7.0 | 15.0 | 0.00 | 0.00 | 0.00 | 39 | 1011.0 |
| 20260505163504 | 79 | 238 | 5.0 | 15.0 | 0.00 | 0.00 | 0.00 | 39 | 1011.0 |
| 20260505163011 | 78 | 244 | 4.0 | 12.0 | 0.00 | 0.00 | 0.00 | 38 | 1011.0 |
| 20260505162504 | 79 | 190 | 6.0 | 11.0 | 0.00 | 0.00 | 0.00 | 37 | 1011.1 |
| 20260505162005 | 78 | 194 | 3.0 | 11.0 | 0.00 | 0.00 | 0.00 | 39 | 1011.2 |
| 20260505161511 | 78 | 173 | 3.0 | 11.0 | 0.00 | 0.00 | 0.00 | 42 | 1011.3 |
| 20260505161009 | 78 | 130 | 5.0 | 11.0 | 0.00 | 0.00 | 0.00 | 39 | 1011.4 |
| 20260505160507 | 78 | 249 | 4.0 | 11.0 | 0.00 | 0.00 | 0.00 | 38 | 1011.4 |
| 20260505153026 | 76 | 230 | 4.0 | 7.0 | 0.00 | 0.00 | 0.00 | 41 | 1012.1 |
| 20260505152511 | 76 | 221 | 2.0 | 8.0 | 0.00 | 0.00 | 0.00 | 43 | 1012.1 |
| 20260505152012 | 75 | 128 | 3.0 | 10.0 | 0.00 | 0.00 | 0.00 | 43 | 1012.0 |
| 20260505151512 | 76 | 167 | 2.0 | 11.0 | 0.00 | 0.00 | 0.00 | 42 | 1012.0 |
| 20260505151006 | 75 | 207 | 5.0 | 11.0 | 0.00 | 0.00 | 0.00 | 42 | 1012.0 |
| 20260505150506 | 75 | 216 | 4.0 | 10.0 | 0.00 | 0.00 | 0.00 | 43 | 1011.9 |
| 20260505140502 | 71 | 54 | 2.0 | 7.0 | 0.00 | 0.00 | 0.00 | 51 | 1011.8 |
| 20260505125001 | 64 | 113 | 1.0 | 4.0 | 0.00 | 0.00 | 0.00 | 61 | 1012.1 |
| 20260505124502 | 64 | 212 | 0.0 | 4.0 | 0.00 | 0.00 | 0.00 | 61 | 1012.1 |
| 20260505124005 | 63 | 190 | 2.0 | 4.0 | 0.00 | 0.00 | 0.00 | 61 | 1012.2 |
| 20260505123502 | 63 | 198 | 1.0 | 4.0 | 0.00 | 0.00 | 0.00 | 64 | 1012.3 |
| 20260505123003 | 63 | 221 | 1.0 | 3.0 | 0.00 | 0.00 | 0.00 | 62 | 1012.3 |
| 20260505122504 | 62 | 157 | 0.0 | 3.0 | 0.00 | 0.00 | 0.00 | 64 | 1012.4 |
| 20260505122003 | 62 | 196 | 1.0 | 3.0 | 0.00 | 0.00 | 0.00 | 65 | 1012.5 |
| 20260505121506 | 62 | 176 | 0.0 | 3.0 | 0.00 | 0.00 | 0.00 | 67 | 1012.5 |
| 20260505121003 | 61 | 170 | 1.0 | 3.0 | 0.00 | 0.00 | 0.00 | 67 | 1012.5 |
| 20260505120504 | 60 | 188 | 1.0 | 2.0 | 0.00 | 0.00 | 0.00 | 68 | 1012.5 |
| 20260505120008 | 59 | 204 | 1.0 | 2.0 | 0.00 | 0.00 | 0.00 | 68 | 1012.4 |
| 20260505115504 | 59 | 209 | 1.0 | 3.0 | 0.00 | 0.00 | 0.00 | 68 | 1012.4 |
| 20260505115004 | 58 | 211 | 0.0 | 4.0 | 0.00 | 0.00 | 0.00 | 71 | 1012.3 |
| 20260505114527 | 57 | 229 | 2.0 | 4.0 | 0.00 | 0.00 | 0.00 | 72 | 1012.3 |
| 20260505114006 | 57 | 225 | 0.0 | 2.0 | 0.00 | 0.00 | 0.00 | 73 | 1012.2 |
| 20260505113503 | 56 | 143 | 0.0 | 6.0 | 0.00 | 0.00 | 0.00 | 73 | 1012.1 |
| 20260505113003 | 56 | 57 | 1.0 | 6.0 | 0.00 | 0.00 | 0.00 | 73 | 1012.2 |
| 20260505112502 | 56 | 132 | 1.0 | 3.0 | 0.00 | 0.00 | 0.00 | 75 | 1012.1 |
| 20260505112003 | 56 | 120 | 0.0 | 3.0 | 0.00 | 0.00 | 0.00 | 76 | 1012.2 |
| 20260505111504 | 56 | 80 | 0.0 | 4.0 | 0.00 | 0.00 | 0.00 | 76 | 1012.2 |
| 20260505111003 | 56 | 243 | 0.0 | 4.0 | 0.00 | 0.00 | 0.00 | 73 | 1012.1 |
| 20260505110503 | 56 | 199 | 1.0 | 4.0 | 0.00 | 0.00 | 0.00 | 73 | 1012.0 |
| 20260505102003 | 55 | 155 | 2.0 | 4.0 | 0.00 | 0.00 | 0.00 | 77 | 1011.2 |
| 20260505101503 | 55 | 131 | 2.0 | 4.0 | 0.00 | 0.00 | 0.00 | 76 | 1011.2 |
| 20260505101003 | 55 | 141 | 1.0 | 3.0 | 0.00 | 0.00 | 0.00 | 77 | 1011.2 |
| 20260505100503 | 54 | 99 | 1.0 | 3.0 | 0.00 | 0.00 | 0.00 | 78 | 1011.2 |
| 20260505100006 | 54 | 120 | 0.0 | 2.0 | 0.00 | 0.00 | 0.00 | 77 | 1011.2 |
| 20260505095502 | 55 | 58 | 0.0 | 3.0 | 0.00 | 0.00 | 0.00 | 76 | 1011.2 |
| 20260505095003 | 56 | 98 | 1.0 | 3.0 | 0.00 | 0.00 | 0.00 | 75 | 1011.0 |
| 20260505094510 | 55 | 109 | 0.0 | 2.0 | 0.00 | 0.00 | 0.00 | 77 | 1011.2 |
| 20260505094007 | 55 | 103 | 1.0 | 2.0 | 0.00 | 0.00 | 0.00 | 77 | 1011.2 |
| 20260505093507 | 56 | 40 | 1.0 | 2.0 | 0.00 | 0.00 | 0.00 | 73 | 1011.2 |
| 20260505093013 | 57 | 117 | 0.0 | 6.0 | 0.00 | 0.00 | 0.00 | 72 | 1011.1 |
| 20260505092506 | 57 | 122 | 1.0 | 6.0 | 0.00 | 0.00 | 0.00 | 72 | 1011.1 |
| 20260505092008 | 57 | 143 | 1.0 | 6.0 | 0.00 | 0.00 | 0.00 | 72 | 1011.0 |
| 20260505091520 | 57 | 121 | 0.0 | 2.0 | 0.00 | 0.00 | 0.00 | 73 | 1011.0 |
| 20260505091005 | 57 | 130 | 0.0 | 2.0 | 0.00 | 0.00 | 0.00 | 72 | 1011.0 |
| 20260505090506 | 58 | 155 | 0.0 | 5.0 | 0.00 | 0.00 | 0.00 | 71 | 1011.0 |
| 20260505090005 | 58 | 211 | 1.0 | 5.0 | 0.00 | 0.00 | 0.00 | 71 | 1011.0 |
| 20260505085505 | 58 | 243 | 2.0 | 5.0 | 0.00 | 0.00 | 0.00 | 72 | 1011.0 |
| 20260505085004 | 57 | 205 | 3.0 | 7.0 | 0.00 | 0.00 | 0.00 | 72 | 1010.9 |
| 20260505084506 | 57 | 202 | 3.0 | 10.0 | 0.00 | 0.00 | 0.00 | 73 | 1010.9 |
| 20260505084003 | 57 | 210 | 3.0 | 10.0 | 0.00 | 0.00 | 0.00 | 74 | 1010.9 |
| 20260505083505 | 56 | 198 | 1.0 | 4.0 | 0.00 | 0.00 | 0.00 | 75 | 1010.8 |
| 20260505083009 | 57 | 228 | 0.0 | 4.0 | 0.00 | 0.00 | 0.00 | 74 | 1010.9 |
| 20260505082505 | 57 | 210 | 1.0 | 4.0 | 0.00 | 0.00 | 0.00 | 74 | 1010.9 |
| 20260505082005 | 56 | 199 | 2.0 | 3.0 | 0.00 | 0.00 | 0.00 | 75 | 1010.9 |
| 20260505081523 | 56 | 208 | 0.0 | 3.0 | 0.00 | 0.00 | 0.00 | 75 | 1010.9 |
| 20260505081008 | 56 | 225 | 0.0 | 3.0 | 0.00 | 0.00 | 0.00 | 75 | 1010.9 |
| 20260505080508 | 56 | 144 | 0.0 | 3.0 | 0.00 | 0.00 | 0.00 | 75 | 1010.8 |
| 20260505080035 | 56 | 157 | 1.0 | 3.0 | 0.00 | 0.00 | 0.00 | 76 | 1010.7 |
| 20260505075506 | 55 | 171 | 1.0 | 3.0 | 0.00 | 0.00 | 0.00 | 77 | 1010.7 |
| 20260505075008 | 56 | 183 | 0.0 | 3.0 | 0.00 | 0.00 | 0.00 | 76 | 1010.7 |
| 20260505074526 | 56 | 219 | 0.0 | 2.0 | 0.00 | 0.00 | 0.00 | 75 | 1010.7 |
| 20260505074004 | 56 | 136 | 0.0 | 2.0 | 0.00 | 0.00 | 0.00 | 75 | 1010.7 |
| 20260505073504 | 56 | 135 | 0.0 | 3.0 | 0.00 | 0.00 | 0.00 | 75 | 1010.6 |
| 20260505073010 | 56 | 140 | 1.0 | 3.0 | 0.00 | 0.00 | 0.00 | 76 | 1010.5 |
| 20260505072504 | 56 | 167 | 0.0 | 2.0 | 0.00 | 0.00 | 0.00 | 76 | 1010.4 |
| 20260505072004 | 57 | 121 | 0.0 | 3.0 | 0.00 | 0.00 | 0.00 | 75 | 1010.5 |
| 20260505071523 | 57 | 161 | 1.0 | 3.0 | 0.00 | 0.00 | 0.00 | 75 | 1010.5 |
| 20260505071005 | 56 | 144 | 0.0 | 2.0 | 0.00 | 0.00 | 0.00 | 76 | 1010.5 |
| 20260505070505 | 56 | 144 | 0.0 | 2.0 | 0.00 | 0.00 | 0.00 | 75 | 1010.4 |
| 20260505070025 | 57 | 141 | 0.0 | 4.0 | 0.00 | 0.00 | 0.00 | 75 | 1010.4 |
| 20260505065507 | 57 | 147 | 1.0 | 4.0 | 0.00 | 0.00 | 0.00 | 75 | 1010.4 |
| 20260505065005 | 57 | 123 | 2.0 | 4.0 | 0.00 | 0.00 | 0.00 | 73 | 1010.4 |
| 20260505064524 | 57 | 125 | 1.0 | 3.0 | 0.00 | 0.00 | 0.00 | 74 | 1010.3 |
| 20260505064008 | 57 | 149 | 1.0 | 2.0 | 0.00 | 0.00 | 0.00 | 76 | 1010.4 |
| 20260505063508 | 56 | 105 | 0.0 | 3.0 | 0.00 | 0.00 | 0.00 | 76 | 1010.4 |
| 20260505063033 | 56 | 113 | 0.0 | 3.0 | 0.00 | 0.00 | 0.00 | 77 | 1010.4 |
| 20260505062509 | 55 | 140 | 0.0 | 2.0 | 0.00 | 0.00 | 0.00 | 78 | 1010.4 |
| 20260505062004 | 55 | 122 | 0.0 | 2.0 | 0.00 | 0.00 | 0.00 | 79 | 1010.4 |
| 20260505061523 | 55 | 162 | 0.0 | 2.0 | 0.00 | 0.00 | 0.00 | 80 | 1010.4 |
| 20260505061007 | 55 | 144 | 1.0 | 2.0 | 0.00 | 0.00 | 0.00 | 79 | 1010.3 |
| 20260505060507 | 55 | 149 | 0.0 | 2.0 | 0.00 | 0.00 | 0.00 | 80 | 1010.4 |
| 20260505060016 | 54 | 153 | 1.0 | 2.0 | 0.00 | 0.00 | 0.00 | 83 | 1010.4 |
| 20260505055507 | 53 | 165 | 1.0 | 2.0 | 0.00 | 0.00 | 0.00 | 84 | 1010.4 |
| 20260505055009 | 53 | 123 | 0.0 | 2.0 | 0.00 | 0.00 | 0.00 | 84 | 1010.5 |
| 20260505054524 | 53 | 123 | 0.0 | 2.0 | 0.00 | 0.00 | 0.00 | 84 | 1010.4 |
| 20260505054009 | 53 | 123 | 0.0 | 0.0 | 0.00 | 0.00 | 0.00 | 84 | 1010.4 |
| 20260505053508 | 53 | 123 | 0.0 | 1.0 | 0.00 | 0.00 | 0.00 | 83 | 1010.4 |
| 20260505053022 | 53 | 123 | 0.0 | 1.0 | 0.00 | 0.00 | 0.00 | 83 | 1010.4 |
| 20260505052505 | 54 | 123 | 0.0 | 1.0 | 0.00 | 0.00 | 0.00 | 81 | 1010.4 |
| 20260505052003 | 54 | 146 | 0.0 | 2.0 | 0.00 | 0.00 | 0.00 | 79 | 1010.4 |
| 20260505051506 | 56 | 146 | 0.0 | 2.0 | 0.00 | 0.00 | 0.00 | 77 | 1010.4 |
| 20260505051005 | 57 | 126 | 0.0 | 2.0 | 0.00 | 0.00 | 0.00 | 75 | 1010.4 |
| 20260505050505 | 57 | 126 | 1.0 | 3.0 | 0.00 | 0.00 | 0.00 | 75 | 1010.4 |
| 20260505041506 | 57 | 101 | 0.0 | 2.0 | 0.00 | 0.00 | 0.00 | 75 | 1010.4 |
| 20260505041003 | 57 | 135 | 0.0 | 2.0 | 0.00 | 0.00 | 0.00 | 75 | 1010.5 |
| 20260505040505 | 57 | 146 | 0.0 | 0.0 | 0.00 | 0.00 | 0.00 | 73 | 1010.6 |
| 20260505040009 | 57 | 146 | 0.0 | 1.0 | 0.00 | 0.00 | 0.00 | 74 | 1010.6 |
| 20260505035505 | 58 | 146 | 0.0 | 2.0 | 0.00 | 0.00 | 0.00 | 74 | 1010.6 |
| 20260505035005 | 58 | 146 | 0.0 | 2.0 | 0.00 | 0.00 | 0.00 | 73 | 1010.6 |
| 20260505034519 | 58 | 178 | 1.0 | 2.0 | 0.00 | 0.00 | 0.00 | 73 | 1010.8 |
| 20260505034005 | 58 | 123 | 0.0 | 2.0 | 0.00 | 0.00 | 0.00 | 72 | 1010.7 |
| 20260505033511 | 58 | 107 | 0.0 | 2.0 | 0.00 | 0.00 | 0.00 | 72 | 1010.7 |
| 20260505033032 | 58 | 76 | 0.0 | 2.0 | 0.00 | 0.00 | 0.00 | 72 | 1010.8 |
| 20260505032503 | 59 | 76 | 0.0 | 2.0 | 0.00 | 0.00 | 0.00 | 71 | 1010.9 |
| 20260505032003 | 59 | 76 | 0.0 | 2.0 | 0.00 | 0.00 | 0.00 | 69 | 1010.8 |
| 20260505031504 | 60 | 76 | 1.0 | 2.0 | 0.00 | 0.00 | 0.00 | 68 | 1010.7 |
| 20260505031003 | 61 | 144 | 0.0 | 2.0 | 0.00 | 0.00 | 0.00 | 66 | 1010.8 |
| 20260505030503 | 61 | 171 | 0.0 | 5.0 | 0.00 | 0.00 | 0.00 | 66 | 1010.9 |
| 20260505030010 | 61 | 173 | 0.0 | 5.0 | 0.00 | 0.00 | 0.00 | 65 | 1010.9 |
| 20260505025505 | 62 | 186 | 3.0 | 4.0 | 0.00 | 0.00 | 0.00 | 64 | 1010.9 |
| 20260505025004 | 62 | 223 | 2.0 | 4.0 | 0.00 | 0.00 | 0.00 | 65 | 1010.6 |
| 20260505024531 | 62 | 182 | 2.0 | 3.0 | 0.00 | 0.00 | 0.00 | 64 | 1010.7 |
| 20260505024005 | 62 | 242 | 0.0 | 3.0 | 0.00 | 0.00 | 0.00 | 64 | 1010.7 |
| 20260505023506 | 62 | 200 | 2.0 | 4.0 | 0.00 | 0.00 | 0.00 | 63 | 1011.0 |
| 20260505023018 | 63 | 217 | 1.0 | 4.0 | 0.00 | 0.00 | 0.00 | 62 | 1010.6 |
| 20260505022508 | 63 | 197 | 0.0 | 4.0 | 0.00 | 0.00 | 0.00 | 61 | 1010.4 |
| 20260505022009 | 63 | 236 | 1.0 | 4.0 | 0.00 | 0.00 | 0.00 | 61 | 1010.6 |
| 20260505021541 | 64 | 229 | 2.0 | 6.0 | 0.00 | 0.00 | 0.00 | 60 | 1010.7 |
| 20260505021002 | 64 | 223 | 2.0 | 6.0 | 0.00 | 0.00 | 0.00 | 60 | 1010.7 |
| 20260505020504 | 64 | 194 | 4.0 | 6.0 | 0.00 | 0.00 | 0.00 | 59 | 1010.7 |
| 20260505020006 | 64 | 196 | 1.0 | 6.0 | 0.00 | 0.00 | 0.00 | 58 | 1010.7 |
| 20260505015503 | 65 | 194 | 3.0 | 6.0 | 0.00 | 0.00 | 0.00 | 57 | 1010.7 |
| 20260505015003 | 65 | 200 | 3.0 | 6.0 | 0.00 | 0.00 | 0.00 | 58 | 1010.7 |
| 20260505014509 | 65 | 178 | 4.0 | 7.0 | 0.00 | 0.00 | 0.00 | 57 | 1010.7 |
| 20260505014005 | 65 | 201 | 2.0 | 7.0 | 0.00 | 0.00 | 0.00 | 56 | 1010.5 |
| 20260505013504 | 66 | 198 | 2.0 | 7.0 | 0.00 | 0.00 | 0.00 | 55 | 1010.4 |
| 20260505013017 | 66 | 193 | 3.0 | 7.0 | 0.00 | 0.00 | 0.00 | 54 | 1010.6 |
| 20260505012504 | 66 | 219 | 2.0 | 6.0 | 0.00 | 0.00 | 0.00 | 54 | 1010.6 |
| 20260505012009 | 66 | 161 | 2.0 | 6.0 | 0.00 | 0.00 | 0.00 | 54 | 1010.3 |
| 20260505011527 | 66 | 194 | 2.0 | 5.0 | 0.00 | 0.00 | 0.00 | 53 | 1010.4 |
| 20260505011009 | 66 | 264 | 1.0 | 4.0 | 0.00 | 0.00 | 0.00 | 53 | 1010.3 |
| 20260505010508 | 66 | 204 | 2.0 | 4.0 | 0.00 | 0.00 | 0.00 | 54 | 1010.4 |
| 20260505010024 | 66 | 220 | 1.0 | 3.0 | 0.00 | 0.00 | 0.00 | 53 | 1010.3 |
| 20260505005509 | 66 | 140 | 0.0 | 2.0 | 0.00 | 0.00 | 0.00 | 53 | 1010.0 |
| 20260505005003 | 66 | 212 | 0.0 | 2.0 | 0.00 | 0.00 | 0.00 | 53 | 1010.1 |
| 20260505004516 | 67 | 243 | 0.0 | 2.0 | 0.00 | 0.00 | 0.00 | 52 | 1010.1 |
| 20260505004003 | 67 | 132 | 0.0 | 3.0 | 0.00 | 0.00 | 0.00 | 51 | 1010.0 |
| 20260505003504 | 68 | 177 | 0.0 | 6.0 | 0.00 | 0.00 | 0.00 | 50 | 1010.0 |
| 20260505003011 | 69 | 172 | 1.0 | 6.0 | 0.00 | 0.00 | 0.00 | 49 | 1010.0 |
| 20260505002507 | 69 | 209 | 3.0 | 9.0 | 0.00 | 0.00 | 0.00 | 48 | 1010.1 |
| 20260505002004 | 69 | 175 | 4.0 | 10.0 | 0.00 | 0.00 | 0.00 | 48 | 1010.1 |
| 20260505001517 | 69 | 200 | 5.0 | 10.0 | 0.00 | 0.00 | 0.00 | 48 | 1010.0 |
| 20260505001006 | 69 | 196 | 3.0 | 11.0 | 0.00 | 0.00 | 0.00 | 47 | 1009.9 |
| 20260505000507 | 69 | 234 | 4.0 | 11.0 | 0.00 | 0.00 | 0.00 | 47 | 1009.8 |
| 20260505000021 | 70 | 225 | 3.0 | 10.0 | 0.00 | 0.00 | 0.00 | 47 | 1009.8 |
| 20260504235508 | 70 | 247 | 4.0 | 10.0 | 0.00 | 0.00 | 0.00 | 47 | 1009.8 |
| 20260504235010 | 70 | 210 | 4.0 | 8.0 | 0.00 | 0.00 | 0.00 | 47 | 1009.7 |
| 20260504234524 | 70 | 221 | 2.0 | 6.0 | 0.00 | 0.00 | 0.00 | 46 | 1009.7 |
| 20260504234012 | 70 | 211 | 2.0 | 8.0 | 0.00 | 0.00 | 0.00 | 47 | 1009.7 |
| 20260504233511 | 70 | 255 | 3.0 | 8.0 | 0.00 | 0.00 | 0.00 | 45 | 1009.7 |
| 20260504233012 | 70 | 219 | 3.0 | 8.0 | 0.00 | 0.00 | 0.00 | 45 | 1009.6 |
| 20260504232504 | 71 | 208 | 5.0 | 14.0 | 0.00 | 0.00 | 0.00 | 45 | 1009.5 |
| 20260504232007 | 71 | 207 | 6.0 | 16.0 | 0.00 | 0.00 | 0.00 | 44 | 1009.5 |
| 20260504231517 | 71 | 202 | 9.0 | 16.0 | 0.00 | 0.00 | 0.00 | 43 | 1009.6 |
| 20260504231004 | 72 | 216 | 8.0 | 15.0 | 0.00 | 0.00 | 0.00 | 42 | 1009.6 |
| 20260504230507 | 72 | 207 | 6.0 | 14.0 | 0.00 | 0.00 | 0.00 | 42 | 1009.7 |
| 20260504230022 | 72 | 215 | 7.0 | 13.0 | 0.00 | 0.00 | 0.00 | 41 | 1009.5 |
| 20260504225512 | 72 | 167 | 6.0 | 15.0 | 0.00 | 0.00 | 0.00 | 41 | 1009.5 |
| 20260504225009 | 72 | 207 | 3.0 | 15.0 | 0.00 | 0.00 | 0.00 | 42 | 1009.5 |
| 20260504224524 | 72 | 144 | 7.0 | 17.0 | 0.00 | 0.00 | 0.00 | 41 | 1009.5 |
| 20260504224007 | 72 | 221 | 6.0 | 18.0 | 0.00 | 0.00 | 0.00 | 40 | 1009.4 |
| 20260504223510 | 73 | 214 | 10.0 | 18.0 | 0.00 | 0.00 | 0.00 | 39 | 1009.4 |
| 20260504223034 | 73 | 253 | 7.0 | 14.0 | 0.00 | 0.00 | 0.00 | 39 | 1009.2 |
| 20260504222510 | 73 | 173 | 6.0 | 16.0 | 0.00 | 0.00 | 0.00 | 39 | 1009.1 |
| 20260504222014 | 73 | 165 | 7.0 | 16.0 | 0.00 | 0.00 | 0.00 | 38 | 1009.2 |
| 20260504221512 | 74 | 208 | 5.0 | 13.0 | 0.00 | 0.00 | 0.00 | 38 | 1009.1 |
| 20260504221004 | 74 | 216 | 4.0 | 13.0 | 0.00 | 0.00 | 0.00 | 38 | 1009.1 |
| 20260504220505 | 74 | 263 | 6.0 | 13.0 | 0.00 | 0.00 | 0.00 | 39 | 1009.1 |
| 20260504220004 | 74 | 194 | 6.0 | 15.0 | 0.00 | 0.00 | 0.00 | 37 | 1009.1 |
| 20260504215503 | 75 | 244 | 7.0 | 15.0 | 0.00 | 0.00 | 0.00 | 37 | 1009.1 |
| 20260504215003 | 75 | 223 | 6.0 | 14.0 | 0.00 | 0.00 | 0.00 | 37 | 1009.1 |
| 20260504214503 | 75 | 231 | 5.0 | 11.0 | 0.00 | 0.00 | 0.00 | 37 | 1009.1 |
| 20260504214007 | 75 | 194 | 4.0 | 14.0 | 0.00 | 0.00 | 0.00 | 37 | 1009.0 |
| 20260504213505 | 75 | 235 | 8.0 | 14.0 | 0.00 | 0.00 | 0.00 | 35 | 1009.0 |
| 20260504213003 | 76 | 201 | 8.0 | 14.0 | 0.00 | 0.00 | 0.00 | 35 | 1009.1 |
| 20260504212504 | 76 | 283 | 4.0 | 15.0 | 0.00 | 0.00 | 0.00 | 36 | 1008.9 |
| 20260504212002 | 76 | 189 | 10.0 | 14.0 | 0.00 | 0.00 | 0.00 | 35 | 1009.0 |
| 20260504211504 | 76 | 203 | 9.0 | 13.0 | 0.00 | 0.00 | 0.00 | 35 | 1008.9 |
| 20260504211001 | 76 | 236 | 3.0 | 14.0 | 0.00 | 0.00 | 0.00 | 35 | 1008.8 |
| 20260504210501 | 76 | 202 | 7.0 | 14.0 | 0.00 | 0.00 | 0.00 | 35 | 1008.9 |
| 20260504210003 | 76 | 197 | 4.0 | 15.0 | 0.00 | 0.00 | 0.00 | 37 | 1008.8 |
| 20260504205503 | 76 | 186 | 6.0 | 15.0 | 0.00 | 0.00 | 0.00 | 37 | 1008.9 |
| 20260504205002 | 76 | 249 | 8.0 | 15.0 | 0.00 | 0.00 | 0.00 | 35 | 1008.7 |
| 20260504204511 | 75 | 202 | 5.0 | 12.0 | 0.00 | 0.00 | 0.00 | 35 | 1008.8 |
| 20260504204003 | 75 | 227 | 6.0 | 12.0 | 0.00 | 0.00 | 0.00 | 37 | 1009.0 |
| 20260504203502 | 74 | 177 | 6.0 | 11.0 | 0.00 | 0.00 | 0.00 | 36 | 1009.1 |
| 20260504203003 | 73 | 188 | 3.0 | 13.0 | 0.00 | 0.00 | 0.00 | 37 | 1009.1 |
| 20260504202503 | 74 | 219 | 7.0 | 13.0 | 0.00 | 0.00 | 0.00 | 35 | 1009.2 |
| 20260504202003 | 74 | 189 | 4.0 | 9.0 | 0.00 | 0.00 | 0.00 | 37 | 1009.2 |
| 20260504201505 | 75 | 187 | 5.0 | 13.0 | 0.00 | 0.00 | 0.00 | 36 | 1009.2 |
| 20260504201003 | 75 | 205 | 6.0 | 13.0 | 0.00 | 0.00 | 0.00 | 35 | 1009.3 |
| 20260504200503 | 75 | 192 | 6.0 | 13.0 | 0.00 | 0.00 | 0.00 | 36 | 1009.4 |
| 20260504200004 | 74 | 193 | 2.0 | 10.0 | 0.00 | 0.00 | 0.00 | 37 | 1009.4 |
| 20260504195502 | 73 | 196 | 6.0 | 12.0 | 0.00 | 0.00 | 0.00 | 35 | 1009.4 |
| 20260504195002 | 75 | 212 | 5.0 | 9.0 | 0.00 | 0.00 | 0.00 | 34 | 1009.5 |
| 20260504194506 | 75 | 221 | 5.0 | 9.0 | 0.00 | 0.00 | 0.00 | 35 | 1009.5 |
| 20260504194002 | 75 | 198 | 4.0 | 9.0 | 0.00 | 0.00 | 0.00 | 35 | 1009.7 |
| 20260504193504 | 76 | 244 | 3.0 | 12.0 | 0.00 | 0.00 | 0.00 | 35 | 1009.8 |
| 20260504193005 | 74 | 242 | 5.0 | 12.0 | 0.00 | 0.00 | 0.00 | 34 | 1010.0 |
| 20260504192505 | 73 | 140 | 4.0 | 12.0 | 0.00 | 0.00 | 0.00 | 35 | 1010.0 |
| 20260504192004 | 75 | 186 | 6.0 | 12.0 | 0.00 | 0.00 | 0.00 | 34 | 1010.2 |